Terminal Aerodrome Forecast
Issued by NWS

Home | Current Version | Previous Version | Text Only | Print | Product List | Glossary Off
Versions: 1 2 3 4 5 6 7 8 9 10 11 12 13 14 15 16 17 18 19 20

000
FTUS43 KGRB 180520
TAFATW
TAF
KATW 180520Z 1806/1906 18004KT P6SM FEW030
     FM180800 20004KT P6SM SCT045
     FM181300 21009KT P6SM SCT200
     FM182000 21009KT P6SM SCT035 BKN150
      TEMPO 1900/1904 3SM -TSRA BKN035CB
     FM190400 30006KT 6SM -SHRA OVC015=

USA.gov is the U.S. government's official web portal to all federal, state and local government web resources and services.